createdAt,value
2019-03-05T00:00:38.135Z,0.90
2019-03-05T00:03:07.961Z,0.70
2019-03-05T00:05:37.668Z,0.62
2019-03-05T00:08:07.425Z,0.60
2019-03-05T00:10:37.201Z,0.70
2019-03-05T00:13:06.894Z,0.68
2019-03-05T00:15:36.596Z,0.60
2019-03-05T00:18:06.418Z,0.70
2019-03-05T00:20:36.133Z,0.68
2019-03-05T00:23:08.198Z,0.70
2019-03-05T00:25:38.958Z,0.78
2019-03-05T00:28:22.170Z,0.60
2019-03-05T00:31:05.465Z,0.70
2019-03-05T00:33:51.451Z,0.72
2019-03-05T00:36:44.360Z,0.60
2019-03-05T00:39:24.278Z,0.70
2019-03-05T00:42:29.987Z,1.05
2019-03-05T00:45:15.999Z,0.70
2019-03-05T00:48:14.140Z,0.80
2019-03-05T00:51:08.620Z,0.80
2019-03-05T00:54:10.086Z,0.80
2019-03-05T00:57:32.715Z,0.90
2019-03-05T01:00:46.920Z,1.60
2019-03-05T01:04:11.315Z,1.60
2019-03-05T01:06:41.008Z,1.87
2019-03-05T01:09:17.295Z,1.87
2019-03-05T01:11:47.897Z,1.22
2019-03-05T01:14:17.913Z,1.05
2019-03-05T01:16:47.533Z,0.98
2019-03-05T01:19:17.238Z,0.98
2019-03-05T01:21:46.922Z,1.10
2019-03-05T01:24:16.903Z,1.12
2019-03-05T01:26:46.525Z,0.88
2019-03-05T01:29:16.236Z,0.65
2019-03-05T01:31:47.566Z,0.70
2019-03-05T01:34:24.639Z,0.80
2019-03-05T01:36:58.633Z,0.75
2019-03-05T01:39:28.040Z,0.60
2019-03-05T01:41:57.664Z,0.50
2019-03-05T01:44:27.369Z,0.50
2019-03-05T01:46:56.982Z,0.50
2019-03-05T01:49:26.618Z,0.42
2019-03-05T01:51:56.232Z,0.45
2019-03-05T01:54:25.872Z,0.40
2019-03-05T01:56:55.490Z,0.40
2019-03-05T01:59:25.133Z,0.57
2019-03-05T02:01:54.813Z,0.40
2019-03-05T02:04:24.523Z,0.40
2019-03-05T04:38:56.708Z,0.50
2019-03-05T04:41:26.324Z,0.62
2019-03-05T04:43:55.961Z,0.78
2019-03-05T04:46:33.337Z,0.70
2019-03-05T04:49:21.311Z,0.68
2019-03-05T04:51:55.291Z,0.82
2019-03-05T04:54:25.004Z,0.90
2019-03-05T04:56:54.682Z,0.90
2019-03-05T04:59:24.317Z,0.88
2019-03-05T05:01:53.937Z,1.15
2019-03-05T05:04:25.210Z,0.93
2019-03-05T05:06:54.810Z,0.93
2019-03-05T05:09:24.444Z,0.80
2019-03-05T05:11:54.060Z,0.60
2019-03-05T05:14:23.705Z,0.85
2019-03-05T05:16:53.314Z,0.50
2019-03-05T05:19:22.952Z,1.00
2019-03-05T05:21:52.570Z,0.70
2019-03-05T05:24:22.211Z,0.55
2019-03-05T05:26:51.819Z,0.70
2019-03-05T05:29:21.463Z,0.90
2019-03-05T05:31:51.069Z,0.88
2019-03-05T05:34:20.710Z,0.80
2019-03-05T05:36:50.319Z,0.60
2019-03-05T05:40:16.487Z,0.80
2019-03-05T05:42:46.097Z,0.75
2019-03-05T05:45:22.175Z,0.45
2019-03-05T05:47:51.792Z,0.50
2019-03-05T05:50:21.424Z,0.60
2019-03-05T05:52:51.035Z,0.90
2019-03-05T05:55:20.682Z,0.70
2019-03-05T05:57:50.292Z,0.75
2019-03-05T06:00:20.274Z,0.85
2019-03-05T06:02:49.891Z,0.88
2019-03-05T06:05:19.536Z,1.10
2019-03-05T06:07:49.146Z,1.02
2019-03-05T06:10:18.927Z,0.80
2019-03-05T06:12:48.613Z,0.90
2019-03-05T06:15:18.398Z,0.60
2019-03-05T06:17:47.999Z,0.40
2019-03-05T06:20:18.446Z,0.90
2019-03-05T06:22:48.123Z,0.50
2019-03-05T06:25:17.902Z,0.50
2019-03-05T06:27:47.514Z,0.70
2019-03-05T06:30:39.211Z,0.75
2019-03-05T06:33:08.827Z,0.60
2019-03-05T06:35:38.463Z,0.68
2019-03-05T06:38:08.072Z,0.60
2019-03-05T06:40:37.716Z,0.50
2019-03-05T06:43:07.399Z,0.70
2019-03-05T06:45:37.049Z,0.70
2019-03-05T06:48:06.657Z,0.90
2019-03-05T06:50:36.290Z,0.70
2019-03-05T06:53:05.916Z,1.02
2019-03-05T06:55:35.549Z,0.88
2019-03-05T06:58:05.167Z,1.00
2019-03-05T07:00:41.771Z,0.70
2019-03-05T07:03:11.797Z,0.88
2019-03-05T07:06:36.525Z,1.07
2019-03-05T07:09:40.764Z,0.80
2019-03-05T07:12:17.641Z,1.13
2019-03-05T07:15:19.096Z,0.88
2019-03-05T07:17:56.072Z,0.93
2019-03-05T07:20:59.181Z,0.80
2019-03-05T07:24:00.753Z,1.00
2019-03-05T07:26:30.527Z,0.72
2019-03-05T07:29:00.149Z,0.88
2019-03-05T07:31:29.815Z,0.70
2019-03-05T07:33:59.429Z,1.00
2019-03-05T07:36:29.099Z,0.80
2019-03-05T07:38:58.689Z,0.95
2019-03-05T07:41:28.316Z,1.10
2019-03-05T07:43:57.933Z,0.90
2019-03-05T07:46:27.568Z,1.17
2019-03-05T07:48:57.182Z,0.88
2019-03-05T07:51:26.797Z,1.57
2019-03-05T07:53:56.446Z,1.02
2019-03-05T07:56:26.058Z,1.17
2019-03-05T07:58:55.696Z,0.80
2019-03-05T08:01:25.400Z,1.00
2019-03-05T08:03:55.025Z,1.10
2019-03-05T08:06:24.646Z,1.50
2019-03-05T08:09:36.446Z,1.17
2019-03-05T08:12:25.528Z,1.17
2019-03-05T08:15:36.340Z,1.50
2019-03-05T08:18:06.116Z,1.80
2019-03-05T08:20:35.867Z,1.82
2019-03-05T08:23:05.579Z,1.00
2019-03-05T08:25:35.199Z,0.88
2019-03-05T08:28:04.913Z,1.20
2019-03-05T08:30:34.659Z,0.53
2019-03-05T08:33:04.366Z,0.50
2019-03-05T08:35:33.984Z,0.30
2019-03-05T08:38:03.618Z,0.40
2019-03-05T08:40:33.300Z,0.40
2019-03-05T08:43:02.956Z,0.20
2019-03-05T08:45:32.575Z,0.30
2019-03-05T08:48:02.201Z,0.50
2019-03-05T08:50:31.811Z,0.50
2019-03-05T08:53:01.446Z,0.30
2019-03-05T08:55:31.054Z,0.40
2019-03-05T08:58:00.699Z,0.40
2019-03-05T09:00:30.387Z,0.60
2019-03-05T09:03:00.031Z,0.60
2019-03-05T09:05:29.712Z,0.40
2019-03-05T09:07:59.411Z,0.47
2019-03-05T09:10:30.017Z,0.50
2019-03-05T09:13:00.291Z,0.60
2019-03-05T09:15:29.906Z,0.72
2019-03-05T09:17:59.686Z,0.40
2019-03-05T09:20:29.434Z,0.50
2019-03-05T09:22:59.080Z,0.50
2019-03-05T09:25:28.769Z,0.40
2019-03-05T09:27:58.411Z,0.60
2019-03-05T09:30:28.161Z,0.50
2019-03-05T09:32:57.807Z,0.60
2019-03-05T09:35:27.420Z,0.50
2019-03-05T09:37:57.068Z,0.88
2019-03-05T09:40:32.543Z,0.62
2019-03-05T09:43:02.252Z,0.55
2019-03-05T09:45:31.939Z,0.65
2019-03-05T09:48:01.710Z,0.75
2019-03-05T09:50:32.302Z,1.00
2019-03-05T09:53:02.622Z,0.90
2019-03-05T09:55:33.875Z,0.90
2019-03-05T09:58:07.971Z,0.72
2019-03-05T10:00:35.409Z,0.62
2019-03-05T10:03:06.146Z,0.90
2019-03-05T10:05:35.831Z,0.62
2019-03-05T10:08:06.160Z,0.75
2019-03-05T10:10:35.934Z,0.45
2019-03-05T10:13:05.854Z,1.00
2019-03-05T10:15:35.701Z,0.60
2019-03-05T10:18:12.827Z,0.70
2019-03-05T10:20:37.520Z,0.72
2019-03-05T10:23:07.273Z,1.52
2019-03-05T10:25:36.981Z,0.75
2019-03-05T10:28:06.738Z,0.70
2019-03-05T10:30:44.492Z,0.60
2019-03-05T10:33:17.057Z,0.55
2019-03-05T10:35:46.758Z,0.72
2019-03-05T10:38:16.577Z,0.60
2019-03-05T10:41:01.984Z,0.60
2019-03-05T10:43:31.941Z,0.82
2019-03-05T10:46:01.650Z,0.80
2019-03-05T10:48:31.273Z,0.60
2019-03-05T10:51:01.146Z,0.72
2019-03-05T10:53:30.911Z,0.72
2019-03-05T10:56:00.553Z,0.82
2019-03-05T10:58:34.143Z,0.65
2019-03-05T11:01:02.044Z,0.50
2019-03-05T11:03:32.174Z,0.80
2019-03-05T11:06:02.122Z,0.62
2019-03-05T11:08:31.740Z,0.70
2019-03-05T11:11:12.634Z,0.70
2019-03-05T11:13:33.757Z,0.55
2019-03-05T11:16:06.108Z,0.80
2019-03-05T11:18:37.123Z,0.70
2019-03-05T11:21:07.779Z,0.55
2019-03-05T11:23:37.528Z,0.50
2019-03-05T11:26:07.172Z,0.72
2019-03-05T11:28:36.781Z,0.40
2019-03-05T11:31:07.944Z,0.88
2019-03-05T11:33:37.547Z,0.40
2019-03-05T11:36:07.254Z,0.60
2019-03-05T11:38:36.932Z,0.42
2019-03-05T11:41:06.637Z,0.57
2019-03-05T11:43:36.318Z,0.47
2019-03-05T11:46:09.674Z,0.40
2019-03-05T11:48:39.295Z,0.53
2019-03-05T11:51:09.009Z,0.47
2019-03-05T11:53:38.622Z,0.40
2019-03-05T11:56:08.399Z,0.28
2019-03-05T11:58:38.015Z,0.30
2019-03-05T12:01:10.905Z,0.80
2019-03-05T12:03:40.790Z,0.72
2019-03-05T12:06:10.426Z,0.30
2019-03-05T12:08:40.047Z,0.60
2019-03-05T12:11:09.830Z,0.50
2019-03-05T12:13:39.587Z,0.78
2019-03-05T12:16:09.927Z,0.80
2019-03-05T12:18:39.557Z,0.60
2019-03-05T12:21:09.254Z,1.02
2019-03-05T12:23:38.934Z,0.80
2019-03-05T12:26:08.733Z,0.80
2019-03-05T12:28:38.419Z,0.80
2019-03-05T12:31:08.125Z,0.70
2019-03-05T12:33:37.752Z,0.68
2019-03-05T12:36:07.610Z,0.68
2019-03-05T12:38:37.234Z,0.50
2019-03-05T12:41:06.881Z,0.90
2019-03-05T12:43:36.506Z,0.68
2019-03-05T12:46:06.215Z,0.70
2019-03-05T12:48:39.855Z,0.72
2019-03-05T12:51:07.777Z,0.82
2019-03-05T12:53:37.398Z,0.50
2019-03-05T12:56:07.104Z,0.90
2019-03-05T12:58:36.714Z,0.60
2019-03-05T13:01:08.215Z,0.53
2019-03-05T13:03:37.831Z,0.40
2019-03-05T13:06:07.545Z,0.40
2019-03-05T13:08:37.182Z,0.60
2019-03-05T13:11:09.427Z,0.75
2019-03-05T13:13:38.147Z,0.65
2019-03-05T13:16:07.919Z,0.50
2019-03-05T13:18:37.530Z,0.57
2019-03-05T13:21:07.648Z,0.40
2019-03-05T13:23:38.330Z,0.62
2019-03-05T13:26:09.227Z,0.40
2019-03-05T13:28:40.601Z,0.30
2019-03-05T13:31:10.470Z,0.57
2019-03-05T13:33:41.999Z,0.60
2019-03-05T13:36:12.616Z,0.60
2019-03-05T13:38:45.219Z,0.50
2019-03-05T13:41:15.549Z,0.50
2019-03-05T13:43:45.971Z,0.62
2019-03-05T13:46:15.582Z,0.40
2019-03-05T13:49:01.032Z,0.70
2019-03-05T13:51:56.133Z,0.90
2019-03-05T13:54:48.417Z,0.55
2019-03-05T13:58:02.758Z,0.60
2019-03-05T14:00:32.447Z,0.70
2019-03-05T14:03:12.631Z,0.75
2019-03-05T14:06:04.525Z,0.88
2019-03-05T14:08:41.674Z,1.00
2019-03-05T14:11:11.358Z,0.90
2019-03-05T14:13:41.010Z,0.62
2019-03-05T14:16:12.496Z,0.40
2019-03-05T14:18:42.154Z,0.40
2019-03-05T14:21:12.025Z,0.80
2019-03-05T14:23:41.842Z,0.70
2019-03-05T14:26:11.624Z,0.80
2019-03-05T14:28:41.313Z,0.80
2019-03-05T14:31:10.993Z,0.85
2019-03-05T14:33:40.678Z,0.70
2019-03-05T14:36:10.418Z,0.80
2019-03-05T14:38:40.104Z,0.60
2019-03-05T14:41:10.319Z,0.75
2019-03-05T14:43:40.037Z,0.60
2019-03-05T14:46:10.101Z,0.68
2019-03-05T14:48:39.855Z,0.88
2019-03-05T14:51:09.537Z,0.90
2019-03-05T14:53:39.252Z,0.82
2019-03-05T14:56:09.088Z,0.82
2019-03-05T14:58:38.745Z,0.90
2019-03-05T15:01:08.791Z,0.80
2019-03-05T15:03:38.494Z,1.10
2019-03-05T15:06:08.257Z,1.22
2019-03-05T15:08:37.967Z,1.10
2019-03-05T15:11:07.749Z,1.10
2019-03-05T15:13:37.415Z,1.20
2019-03-05T15:16:07.077Z,1.15
2019-03-05T15:18:36.733Z,1.35
2019-03-05T15:21:06.478Z,1.12
2019-03-05T15:23:36.142Z,0.93
2019-03-05T15:26:05.793Z,1.00
2019-03-05T15:28:35.507Z,1.00
2019-03-05T15:31:05.572Z,1.22
2019-03-05T15:33:35.256Z,1.52
2019-03-05T15:36:04.900Z,1.20
2019-03-05T15:38:34.634Z,1.57
2019-03-05T15:41:04.320Z,1.30
2019-03-05T15:43:34.046Z,1.37
2019-03-05T15:46:03.802Z,1.67
2019-03-05T15:48:33.423Z,1.35
2019-03-05T15:51:03.065Z,1.30
2019-03-05T15:53:32.753Z,1.20
2019-03-05T15:56:02.390Z,1.70
2019-03-05T15:58:32.011Z,1.30
2019-03-05T16:01:01.650Z,1.50
2019-03-05T16:03:31.407Z,1.35
2019-03-05T16:06:01.184Z,1.27
2019-03-05T16:08:32.530Z,1.15
2019-03-05T16:11:02.166Z,1.00
2019-03-05T16:13:32.645Z,1.00
2019-03-05T16:16:02.500Z,1.20
2019-03-05T16:18:32.192Z,1.20
2019-03-05T16:21:02.535Z,1.27
2019-03-05T16:23:33.252Z,0.93
2019-03-05T16:26:02.952Z,1.47
2019-03-05T16:28:32.564Z,1.27
2019-03-05T16:31:07.772Z,2.20
2019-03-05T16:33:40.320Z,1.12
2019-03-05T16:36:29.133Z,1.40
2019-03-05T16:39:06.202Z,1.17
2019-03-05T16:41:43.195Z,1.32
2019-03-05T16:44:18.289Z,1.95
2019-03-05T16:47:05.712Z,1.37
2019-03-05T16:49:35.101Z,1.90
2019-03-05T16:52:04.642Z,2.80
2019-03-05T16:54:38.901Z,3.27
2019-03-05T16:59:53.352Z,3.55
2019-03-05T17:02:22.870Z,3.85
2019-03-05T17:04:54.951Z,3.40
2019-03-05T17:07:32.435Z,2.12
2019-03-05T17:10:09.399Z,1.87
2019-03-05T17:12:38.019Z,1.67
2019-03-05T17:15:10.277Z,1.45
2019-03-05T17:17:39.929Z,1.15
2019-03-05T17:20:12.257Z,1.20
2019-03-05T17:22:41.899Z,1.00
2019-03-05T17:25:23.065Z,1.05
2019-03-05T17:27:52.703Z,1.10
2019-03-05T17:30:22.781Z,1.10
2019-03-05T17:32:52.427Z,2.45
2019-03-05T17:35:22.112Z,2.00
2019-03-05T17:37:51.748Z,2.70
2019-03-05T17:40:21.366Z,3.02
2019-03-05T17:42:51.005Z,3.15
2019-03-05T17:45:24.302Z,3.30
2019-03-05T17:47:54.428Z,2.47
2019-03-05T17:50:24.035Z,2.17
2019-03-05T17:52:53.679Z,1.52
2019-03-05T17:55:28.147Z,1.42
2019-03-05T17:57:57.858Z,1.72
2019-03-05T18:00:30.442Z,1.77
2019-03-05T18:03:00.148Z,1.10
2019-03-05T18:05:29.914Z,1.55
2019-03-05T18:07:59.622Z,1.42
2019-03-05T18:10:29.304Z,1.60
2019-03-05T18:12:58.942Z,1.82
2019-03-05T18:15:28.919Z,2.10
2019-03-05T18:17:58.654Z,2.42
2019-03-05T18:20:28.342Z,2.00
2019-03-05T18:22:57.981Z,2.70
2019-03-05T18:25:27.588Z,2.62
2019-03-05T18:27:57.235Z,2.42
2019-03-05T18:30:32.414Z,2.70
2019-03-05T18:33:02.056Z,2.35
2019-03-05T18:35:31.735Z,1.85
2019-03-05T18:38:01.631Z,2.10
2019-03-05T18:40:31.381Z,2.22
2019-03-05T18:43:01.096Z,1.90
2019-03-05T18:45:39.383Z,3.10
2019-03-05T18:48:09.155Z,2.62
2019-03-05T18:50:38.838Z,2.40
2019-03-05T18:53:08.478Z,2.37
2019-03-05T18:55:38.091Z,2.40
2019-03-05T18:58:07.731Z,2.65
2019-03-05T19:00:38.278Z,2.50
2019-03-05T19:03:10.532Z,3.85
2019-03-05T19:05:40.488Z,2.92
2019-03-05T19:08:10.199Z,3.85
2019-03-05T19:10:40.055Z,5.05
2019-03-05T19:13:09.922Z,6.75
2019-03-05T19:15:39.536Z,7.70
2019-03-05T19:18:09.250Z,7.97
2019-03-05T19:20:38.936Z,8.85
2019-03-05T19:23:08.655Z,6.97
2019-03-05T19:25:44.262Z,5.05
2019-03-05T19:28:14.144Z,3.65
2019-03-05T19:30:47.632Z,2.92
2019-03-05T19:33:17.270Z,1.90
2019-03-05T19:35:46.952Z,2.17
2019-03-05T19:38:16.590Z,2.67
2019-03-05T19:40:48.427Z,3.12
2019-03-05T19:43:18.121Z,3.10
2019-03-05T19:45:47.802Z,3.40
2019-03-05T19:48:17.489Z,2.08
2019-03-05T19:50:47.308Z,2.17
2019-03-05T19:53:17.016Z,2.95
2019-03-05T19:55:46.706Z,6.33
2019-03-05T19:58:17.124Z,6.17
2019-03-05T20:00:55.977Z,5.90
2019-03-05T20:03:25.615Z,6.62
2019-03-05T20:05:55.226Z,5.08
2019-03-05T20:08:24.875Z,4.62
2019-03-05T20:10:54.485Z,4.55
2019-03-05T20:13:24.134Z,4.78
2019-03-05T20:15:53.747Z,4.20
2019-03-05T20:18:23.359Z,3.52
2019-03-05T20:20:52.997Z,3.40
2019-03-05T20:23:22.785Z,3.90
2019-03-05T20:25:52.498Z,3.50
2019-03-05T20:28:22.114Z,3.50
2019-03-05T20:30:51.895Z,3.15
2019-03-05T20:33:21.518Z,2.90
2019-03-05T20:35:51.603Z,2.95
2019-03-05T20:38:21.297Z,5.97
2019-03-05T20:40:51.014Z,6.72
2019-03-05T20:43:20.703Z,6.53
2019-03-05T20:46:06.655Z,4.85
2019-03-05T20:48:36.278Z,4.40
2019-03-05T20:51:05.990Z,4.40
2019-03-05T20:53:35.610Z,4.92
2019-03-05T20:56:05.326Z,3.90
2019-03-05T20:58:34.928Z,4.90
2019-03-05T21:01:05.912Z,4.62
2019-03-05T21:03:35.762Z,3.62
2019-03-05T21:06:05.612Z,3.65
2019-03-05T21:08:35.301Z,3.72
2019-03-05T21:11:04.948Z,3.55
2019-03-05T21:13:34.636Z,3.50
2019-03-05T21:16:04.706Z,3.60
2019-03-05T21:18:34.377Z,3.40
2019-03-05T21:21:04.544Z,3.85
2019-03-05T21:23:34.225Z,3.90
2019-03-05T21:26:04.015Z,3.12
2019-03-05T21:28:33.694Z,3.55
2019-03-05T21:31:03.339Z,3.52
2019-03-05T21:33:32.960Z,3.47
2019-03-05T21:36:02.590Z,3.30
2019-03-05T21:38:32.204Z,3.47
2019-03-05T21:41:01.840Z,3.30
2019-03-05T21:43:31.743Z,3.50
2019-03-05T21:46:08.393Z,3.47
2019-03-05T21:48:38.002Z,3.00
2019-03-05T21:51:07.644Z,3.50
2019-03-05T21:53:37.333Z,3.30
2019-03-05T21:56:07.043Z,3.45
2019-03-05T21:58:36.654Z,2.95
2019-03-05T22:01:06.354Z,3.25
2019-03-05T22:03:35.974Z,3.35
2019-03-05T22:06:05.966Z,4.10
2019-03-05T22:08:35.578Z,3.17
2019-03-05T22:11:05.284Z,3.70
2019-03-05T22:13:34.901Z,3.50
2019-03-05T22:16:04.788Z,3.52
2019-03-05T22:18:34.401Z,3.60
2019-03-05T22:21:04.173Z,3.40
2019-03-05T22:23:33.843Z,3.00
2019-03-05T22:26:03.583Z,4.30
2019-03-05T22:28:33.189Z,4.08
2019-03-05T22:31:02.939Z,3.95
2019-03-05T22:33:32.583Z,3.87
2019-03-05T22:36:02.222Z,4.80
2019-03-05T22:38:31.842Z,4.03
2019-03-05T22:41:01.762Z,4.20
2019-03-05T22:43:31.374Z,4.28
2019-03-05T22:46:01.016Z,5.10
2019-03-05T22:48:30.625Z,4.90
2019-03-05T22:51:00.267Z,4.50
2019-03-05T22:53:30.063Z,5.28
2019-03-05T22:55:59.697Z,6.22
2019-03-05T22:58:29.318Z,6.15
2019-03-05T23:01:03.508Z,7.62
2019-03-05T23:06:07.223Z,5.97
2019-03-05T23:11:05.990Z,6.78
2019-03-05T23:13:36.610Z,6.53
2019-03-05T23:16:06.683Z,6.75
2019-03-05T23:18:36.451Z,6.08
2019-03-05T23:21:06.282Z,6.65
2019-03-05T23:23:35.988Z,7.00
2019-03-05T23:26:06.110Z,6.00
2019-03-05T23:28:35.824Z,7.40
2019-03-05T23:31:06.379Z,6.55
2019-03-05T23:33:36.024Z,6.28
2019-03-05T23:36:06.240Z,6.28
2019-03-05T23:38:36.229Z,6.62
2019-03-05T23:41:05.980Z,6.33
2019-03-05T23:43:35.683Z,7.08
2019-03-05T23:46:06.012Z,7.92
2019-03-05T23:48:35.652Z,8.10
2019-03-05T23:51:05.267Z,8.88
2019-03-05T23:53:34.909Z,7.92
2019-03-05T23:56:04.593Z,7.65
2019-03-05T23:58:34.233Z,8.15
